sensor_id;sensor_type;location;lat;lon;timestamp;temperature;humidity
30336;DHT22;17142;47.990;7.846;2022-08-19T00:02:26;17.40;99.90
30336;DHT22;17142;47.990;7.846;2022-08-19T00:04:51;17.40;99.90
30336;DHT22;17142;47.990;7.846;2022-08-19T00:07:20;17.40;99.90
30336;DHT22;17142;47.990;7.846;2022-08-19T00:09:45;17.40;99.90
30336;DHT22;17142;47.990;7.846;2022-08-19T00:12:11;17.40;99.90
30336;DHT22;17142;47.990;7.846;2022-08-19T00:14:37;17.40;99.90
30336;DHT22;17142;47.990;7.846;2022-08-19T00:17:04;17.40;99.90
30336;DHT22;17142;47.990;7.846;2022-08-19T00:19:32;17.40;99.90
30336;DHT22;17142;47.990;7.846;2022-08-19T00:21:58;17.40;99.90
30336;DHT22;17142;47.990;7.846;2022-08-19T00:24:26;17.40;99.90
30336;DHT22;17142;47.990;7.846;2022-08-19T00:26:55;17.40;99.90
30336;DHT22;17142;47.990;7.846;2022-08-19T00:29:23;17.40;99.90
30336;DHT22;17142;47.990;7.846;2022-08-19T00:31:50;17.40;99.90
30336;DHT22;17142;47.990;7.846;2022-08-19T00:34:22;17.40;99.90
30336;DHT22;17142;47.990;7.846;2022-08-19T00:36:50;17.30;99.90
30336;DHT22;17142;47.990;7.846;2022-08-19T00:39:16;17.30;99.90
30336;DHT22;17142;47.990;7.846;2022-08-19T00:41:43;17.30;99.90
30336;DHT22;17142;47.990;7.846;2022-08-19T00:44:19;17.30;99.90
30336;DHT22;17142;47.990;7.846;2022-08-19T00:46:47;17.30;99.90
30336;DHT22;17142;47.990;7.846;2022-08-19T00:49:19;17.30;99.90
30336;DHT22;17142;47.990;7.846;2022-08-19T00:51:48;17.30;99.90
30336;DHT22;17142;47.990;7.846;2022-08-19T00:54:16;17.30;99.90
30336;DHT22;17142;47.990;7.846;2022-08-19T00:56:43;17.30;99.90
30336;DHT22;17142;47.990;7.846;2022-08-19T00:59:12;17.30;99.90
30336;DHT22;17142;47.990;7.846;2022-08-19T01:01:39;17.30;99.90
30336;DHT22;17142;47.990;7.846;2022-08-19T01:04:05;17.30;99.90
30336;DHT22;17142;47.990;7.846;2022-08-19T01:06:36;17.30;99.90
30336;DHT22;17142;47.990;7.846;2022-08-19T01:09:03;17.20;99.90
30336;DHT22;17142;47.990;7.846;2022-08-19T07:17:52;19.80;99.90
30336;DHT22;17142;47.990;7.846;2022-08-19T07:20:18;20.00;99.90
30336;DHT22;17142;47.990;7.846;2022-08-19T07:22:44;20.10;99.90
30336;DHT22;17142;47.990;7.846;2022-08-19T07:25:10;20.20;99.90
30336;DHT22;17142;47.990;7.846;2022-08-19T07:27:38;20.20;99.90
30336;DHT22;17142;47.990;7.846;2022-08-19T07:30:05;20.30;99.90
30336;DHT22;17142;47.990;7.846;2022-08-19T07:32:33;20.40;99.90
30336;DHT22;17142;47.990;7.846;2022-08-19T07:35:01;20.50;99.90
30336;DHT22;17142;47.990;7.846;2022-08-19T07:37:28;20.60;99.90
30336;DHT22;17142;47.990;7.846;2022-08-19T07:39:54;20.60;99.90
30336;DHT22;17142;47.990;7.846;2022-08-19T07:42:20;20.70;99.90
30336;DHT22;17142;47.990;7.846;2022-08-19T07:44:46;20.80;99.90
30336;DHT22;17142;47.990;7.846;2022-08-19T07:47:12;20.80;99.90
30336;DHT22;17142;47.990;7.846;2022-08-19T07:49:38;20.90;99.90
30336;DHT22;17142;47.990;7.846;2022-08-19T07:52:08;20.90;99.90
30336;DHT22;17142;47.990;7.846;2022-08-19T07:54:38;20.90;99.90
30336;DHT22;17142;47.990;7.846;2022-08-19T07:57:04;20.80;99.90
30336;DHT22;17142;47.990;7.846;2022-08-19T07:59:30;20.80;99.90
30336;DHT22;17142;47.990;7.846;2022-08-19T08:01:57;20.90;99.90
30336;DHT22;17142;47.990;7.846;2022-08-19T08:04:26;21.00;99.90
30336;DHT22;17142;47.990;7.846;2022-08-19T08:07:11;21.00;99.90
30336;DHT22;17142;47.990;7.846;2022-08-19T08:09:55;21.00;99.90
30336;DHT22;17142;47.990;7.846;2022-08-19T08:12:25;21.00;99.90
30336;DHT22;17142;47.990;7.846;2022-08-19T08:14:58;20.80;99.90
30336;DHT22;17142;47.990;7.846;2022-08-19T08:17:26;20.70;99.90
30336;DHT22;17142;47.990;7.846;2022-08-19T08:19:52;20.50;99.90
30336;DHT22;17142;47.990;7.846;2022-08-19T08:22:20;20.40;99.90
30336;DHT22;17142;47.990;7.846;2022-08-19T08:25:16;20.30;99.90
30336;DHT22;17142;47.990;7.846;2022-08-19T08:27:44;20.30;99.90
30336;DHT22;17142;47.990;7.846;2022-08-19T08:30:16;20.30;99.90
30336;DHT22;17142;47.990;7.846;2022-08-19T08:32:42;20.30;99.90
30336;DHT22;17142;47.990;7.846;2022-08-19T08:35:11;20.30;99.90
30336;DHT22;17142;47.990;7.846;2022-08-19T08:37:42;20.30;99.90
30336;DHT22;17142;47.990;7.846;2022-08-19T08:40:28;20.30;99.90
30336;DHT22;17142;47.990;7.846;2022-08-19T08:45:50;20.30;99.90
30336;DHT22;17142;47.990;7.846;2022-08-19T08:51:34;20.40;99.90
30336;DHT22;17142;47.990;7.846;2022-08-19T08:54:06;20.40;99.90
30336;DHT22;17142;47.990;7.846;2022-08-19T08:56:32;20.30;99.90
30336;DHT22;17142;47.990;7.846;2022-08-19T08:59:04;20.20;99.90
30336;DHT22;17142;47.990;7.846;2022-08-19T09:01:32;20.20;99.90
30336;DHT22;17142;47.990;7.846;2022-08-19T09:03:58;20.20;99.90
30336;DHT22;17142;47.990;7.846;2022-08-19T09:09:31;20.20;99.90
30336;DHT22;17142;47.990;7.846;2022-08-19T09:12:04;20.30;99.90
30336;DHT22;17142;47.990;7.846;2022-08-19T09:14:35;20.10;99.90
30336;DHT22;17142;47.990;7.846;2022-08-19T09:17:05;20.10;99.90
30336;DHT22;17142;47.990;7.846;2022-08-19T09:19:35;20.20;99.90
30336;DHT22;17142;47.990;7.846;2022-08-19T09:22:01;20.20;99.90
30336;DHT22;17142;47.990;7.846;2022-08-19T09:24:26;20.30;99.90
30336;DHT22;17142;47.990;7.846;2022-08-19T09:26:57;20.40;99.90
30336;DHT22;17142;47.990;7.846;2022-08-19T09:29:22;20.50;99.90
30336;DHT22;17142;47.990;7.846;2022-08-19T09:31:48;20.60;99.90
30336;DHT22;17142;47.990;7.846;2022-08-19T09:34:15;20.70;99.90
30336;DHT22;17142;47.990;7.846;2022-08-19T09:36:43;20.70;99.90
30336;DHT22;17142;47.990;7.846;2022-08-19T09:39:11;20.80;99.90
30336;DHT22;17142;47.990;7.846;2022-08-19T09:41:36;20.80;99.90
30336;DHT22;17142;47.990;7.846;2022-08-19T09:44:02;20.80;99.90
30336;DHT22;17142;47.990;7.846;2022-08-19T09:46:32;20.90;99.90
30336;DHT22;17142;47.990;7.846;2022-08-19T09:49:00;21.10;99.90
30336;DHT22;17142;47.990;7.846;2022-08-19T09:51:28;21.20;99.90
30336;DHT22;17142;47.990;7.846;2022-08-19T09:53:55;21.40;99.90
30336;DHT22;17142;47.990;7.846;2022-08-19T09:56:23;21.30;99.90
30336;DHT22;17142;47.990;7.846;2022-08-19T09:58:49;21.40;99.90
30336;DHT22;17142;47.990;7.846;2022-08-19T10:01:25;21.60;99.90
30336;DHT22;17142;47.990;7.846;2022-08-19T10:03:54;21.80;99.90
30336;DHT22;17142;47.990;7.846;2022-08-19T10:06:23;21.80;99.90
30336;DHT22;17142;47.990;7.846;2022-08-19T10:08:55;22.10;99.90
30336;DHT22;17142;47.990;7.846;2022-08-19T10:11:20;22.60;99.90
30336;DHT22;17142;47.990;7.846;2022-08-19T10:13:51;23.10;99.90
30336;DHT22;17142;47.990;7.846;2022-08-19T10:16:19;23.40;99.90
30336;DHT22;17142;47.990;7.846;2022-08-19T10:18:47;23.50;99.90
30336;DHT22;17142;47.990;7.846;2022-08-19T10:21:21;23.50;99.90
30336;DHT22;17142;47.990;7.846;2022-08-19T10:23:49;23.60;99.90
30336;DHT22;17142;47.990;7.846;2022-08-19T10:26:27;23.80;99.90
30336;DHT22;17142;47.990;7.846;2022-08-19T10:28:56;23.90;99.90
30336;DHT22;17142;47.990;7.846;2022-08-19T10:31:29;24.00;99.90
30336;DHT22;17142;47.990;7.846;2022-08-19T10:33:55;24.00;99.90
30336;DHT22;17142;47.990;7.846;2022-08-19T10:36:30;23.80;99.90
30336;DHT22;17142;47.990;7.846;2022-08-19T10:38:59;23.50;99.90
30336;DHT22;17142;47.990;7.846;2022-08-19T10:41:29;23.40;99.90
30336;DHT22;17142;47.990;7.846;2022-08-19T10:43:57;23.30;99.90
30336;DHT22;17142;47.990;7.846;2022-08-19T10:46:29;23.40;99.90
30336;DHT22;17142;47.990;7.846;2022-08-19T10:49:02;23.50;99.90
30336;DHT22;17142;47.990;7.846;2022-08-19T10:51:28;23.70;99.90
30336;DHT22;17142;47.990;7.846;2022-08-19T10:54:12;23.90;99.90
30336;DHT22;17142;47.990;7.846;2022-08-19T10:56:41;24.00;99.90
30336;DHT22;17142;47.990;7.846;2022-08-19T10:59:25;23.90;99.90
30336;DHT22;17142;47.990;7.846;2022-08-19T11:01:51;23.80;99.90
30336;DHT22;17142;47.990;7.846;2022-08-19T11:04:18;24.00;99.90
30336;DHT22;17142;47.990;7.846;2022-08-19T11:06:48;24.40;99.90
30336;DHT22;17142;47.990;7.846;2022-08-19T11:09:22;24.80;99.90
30336;DHT22;17142;47.990;7.846;2022-08-19T11:11:52;25.20;99.90
30336;DHT22;17142;47.990;7.846;2022-08-19T11:14:19;25.40;99.90
30336;DHT22;17142;47.990;7.846;2022-08-19T11:16:49;25.70;99.90
30336;DHT22;17142;47.990;7.846;2022-08-19T11:19:16;26.00;99.90
30336;DHT22;17142;47.990;7.846;2022-08-19T11:21:46;26.30;99.90
30336;DHT22;17142;47.990;7.846;2022-08-19T11:24:17;26.80;99.90
30336;DHT22;17142;47.990;7.846;2022-08-19T11:26:44;27.10;99.90
30336;DHT22;17142;47.990;7.846;2022-08-19T11:29:13;27.30;98.20
30336;DHT22;17142;47.990;7.846;2022-08-19T11:31:41;27.20;97.10
30336;DHT22;17142;47.990;7.846;2022-08-19T11:34:10;27.00;96.40
30336;DHT22;17142;47.990;7.846;2022-08-19T11:36:39;26.80;96.50
30336;DHT22;17142;47.990;7.846;2022-08-19T11:39:06;26.60;97.10
30336;DHT22;17142;47.990;7.846;2022-08-19T11:41:32;26.40;96.60
30336;DHT22;17142;47.990;7.846;2022-08-19T11:43:58;26.40;97.00
30336;DHT22;17142;47.990;7.846;2022-08-19T11:46:25;26.30;97.60
30336;DHT22;17142;47.990;7.846;2022-08-19T11:48:55;26.30;98.20
30336;DHT22;17142;47.990;7.846;2022-08-19T11:51:26;26.30;98.70
30336;DHT22;17142;47.990;7.846;2022-08-19T11:53:55;26.30;98.60
30336;DHT22;17142;47.990;7.846;2022-08-19T11:56:22;26.30;98.70
30336;DHT22;17142;47.990;7.846;2022-08-19T11:58:48;26.50;98.20
30336;DHT22;17142;47.990;7.846;2022-08-19T12:01:18;26.80;97.30
30336;DHT22;17142;47.990;7.846;2022-08-19T12:03:46;26.90;96.80
30336;DHT22;17142;47.990;7.846;2022-08-19T12:06:20;27.00;96.50
30336;DHT22;17142;47.990;7.846;2022-08-19T12:08:49;27.10;96.20
30336;DHT22;17142;47.990;7.846;2022-08-19T12:11:15;27.20;96.30
30336;DHT22;17142;47.990;7.846;2022-08-19T12:13:42;27.20;94.70
30336;DHT22;17142;47.990;7.846;2022-08-19T12:16:15;27.00;94.30
30336;DHT22;17142;47.990;7.846;2022-08-19T12:18:42;26.90;94.10
30336;DHT22;17142;47.990;7.846;2022-08-19T12:21:13;26.90;93.20
30336;DHT22;17142;47.990;7.846;2022-08-19T12:23:40;26.70;92.70
30336;DHT22;17142;47.990;7.846;2022-08-19T12:26:13;26.60;91.60
30336;DHT22;17142;47.990;7.846;2022-08-19T12:28:41;26.30;92.50
30336;DHT22;17142;47.990;7.846;2022-08-19T12:31:08;26.30;93.10
30336;DHT22;17142;47.990;7.846;2022-08-19T12:33:37;26.50;93.20
30336;DHT22;17142;47.990;7.846;2022-08-19T12:36:05;26.80;93.00
30336;DHT22;17142;47.990;7.846;2022-08-19T12:38:31;27.10;92.60
30336;DHT22;17142;47.990;7.846;2022-08-19T12:40:58;27.40;92.40
30336;DHT22;17142;47.990;7.846;2022-08-19T12:43:24;27.20;90.10
30336;DHT22;17142;47.990;7.846;2022-08-19T12:45:50;27.00;90.70
30336;DHT22;17142;47.990;7.846;2022-08-19T12:48:18;26.80;90.60
30336;DHT22;17142;47.990;7.846;2022-08-19T12:50:48;26.70;91.50
30336;DHT22;17142;47.990;7.846;2022-08-19T12:53:15;26.70;90.70
30336;DHT22;17142;47.990;7.846;2022-08-19T12:55:42;26.70;90.20
30336;DHT22;17142;47.990;7.846;2022-08-19T12:58:10;26.80;88.10
30336;DHT22;17142;47.990;7.846;2022-08-19T13:00:38;26.70;89.20
30336;DHT22;17142;47.990;7.846;2022-08-19T13:03:04;26.60;90.00
30336;DHT22;17142;47.990;7.846;2022-08-19T13:05:33;26.80;89.50
30336;DHT22;17142;47.990;7.846;2022-08-19T13:08:01;26.90;89.70
30336;DHT22;17142;47.990;7.846;2022-08-19T13:10:33;27.10;89.20
30336;DHT22;17142;47.990;7.846;2022-08-19T13:13:04;27.20;89.80
30336;DHT22;17142;47.990;7.846;2022-08-19T13:15:33;27.40;89.10
30336;DHT22;17142;47.990;7.846;2022-08-19T13:17:59;27.40;88.80
30336;DHT22;17142;47.990;7.846;2022-08-19T13:20:25;27.40;88.80
30336;DHT22;17142;47.990;7.846;2022-08-19T13:22:51;27.50;89.10
30336;DHT22;17142;47.990;7.846;2022-08-19T13:25:19;27.50;90.10
30336;DHT22;17142;47.990;7.846;2022-08-19T13:27:49;27.50;90.60
30336;DHT22;17142;47.990;7.846;2022-08-19T13:30:16;27.40;90.50
30336;DHT22;17142;47.990;7.846;2022-08-19T13:33:00;27.30;90.00
30336;DHT22;17142;47.990;7.846;2022-08-19T13:38:10;27.10;90.50
30336;DHT22;17142;47.990;7.846;2022-08-19T13:40:36;27.10;90.40
30336;DHT22;17142;47.990;7.846;2022-08-19T13:43:04;27.20;90.30
30336;DHT22;17142;47.990;7.846;2022-08-19T13:45:31;27.20;90.30
30336;DHT22;17142;47.990;7.846;2022-08-19T13:47:59;27.40;89.90
30336;DHT22;17142;47.990;7.846;2022-08-19T13:50:31;27.50;87.90
30336;DHT22;17142;47.990;7.846;2022-08-19T13:52:56;27.60;86.70
30336;DHT22;17142;47.990;7.846;2022-08-19T13:55:23;27.80;85.10
30336;DHT22;17142;47.990;7.846;2022-08-19T13:57:54;27.90;84.50
30336;DHT22;17142;47.990;7.846;2022-08-19T14:00:24;27.90;83.40
30336;DHT22;17142;47.990;7.846;2022-08-19T14:02:53;27.80;86.20
30336;DHT22;17142;47.990;7.846;2022-08-19T14:05:20;27.70;85.70
30336;DHT22;17142;47.990;7.846;2022-08-19T14:07:48;27.80;86.00
30336;DHT22;17142;47.990;7.846;2022-08-19T14:10:15;27.90;82.80
30336;DHT22;17142;47.990;7.846;2022-08-19T14:12:41;27.90;82.50
30336;DHT22;17142;47.990;7.846;2022-08-19T14:15:09;28.00;80.40
30336;DHT22;17142;47.990;7.846;2022-08-19T14:17:38;27.80;81.30
30336;DHT22;17142;47.990;7.846;2022-08-19T14:20:08;27.80;81.10
30336;DHT22;17142;47.990;7.846;2022-08-19T14:22:40;27.50;81.10
30336;DHT22;17142;47.990;7.846;2022-08-19T14:25:12;27.10;82.40
30336;DHT22;17142;47.990;7.846;2022-08-19T14:27:43;26.80;84.30
30336;DHT22;17142;47.990;7.846;2022-08-19T14:30:14;26.40;85.20
30336;DHT22;17142;47.990;7.846;2022-08-19T14:32:43;26.00;85.30
30336;DHT22;17142;47.990;7.846;2022-08-19T14:35:09;25.70;88.30
30336;DHT22;17142;47.990;7.846;2022-08-19T14:37:34;25.50;90.30
30336;DHT22;17142;47.990;7.846;2022-08-19T14:40:02;25.30;90.90
30336;DHT22;17142;47.990;7.846;2022-08-19T14:42:29;25.10;91.80
30336;DHT22;17142;47.990;7.846;2022-08-19T14:45:00;24.90;92.50
30336;DHT22;17142;47.990;7.846;2022-08-19T14:47:26;24.80;94.90
30336;DHT22;17142;47.990;7.846;2022-08-19T14:49:54;24.50;96.20
30336;DHT22;17142;47.990;7.846;2022-08-19T14:52:20;24.30;97.30
30336;DHT22;17142;47.990;7.846;2022-08-19T14:54:46;24.20;97.60
30336;DHT22;17142;47.990;7.846;2022-08-19T14:57:12;24.10;98.10
30336;DHT22;17142;47.990;7.846;2022-08-19T14:59:40;24.00;98.60
30336;DHT22;17142;47.990;7.846;2022-08-19T15:02:06;24.00;98.90
30336;DHT22;17142;47.990;7.846;2022-08-19T15:04:32;24.10;99.30
30336;DHT22;17142;47.990;7.846;2022-08-19T15:06:57;24.10;99.50
30336;DHT22;17142;47.990;7.846;2022-08-19T15:09:23;24.00;99.70
30336;DHT22;17142;47.990;7.846;2022-08-19T15:11:51;24.00;99.90
30336;DHT22;17142;47.990;7.846;2022-08-19T15:14:19;24.00;99.90
30336;DHT22;17142;47.990;7.846;2022-08-19T15:16:46;23.90;99.90
30336;DHT22;17142;47.990;7.846;2022-08-19T15:19:12;23.80;99.90
30336;DHT22;17142;47.990;7.846;2022-08-19T15:21:41;23.80;99.90
30336;DHT22;17142;47.990;7.846;2022-08-19T15:24:09;23.70;99.90
30336;DHT22;17142;47.990;7.846;2022-08-19T15:26:37;23.70;99.90
30336;DHT22;17142;47.990;7.846;2022-08-19T15:29:06;23.70;99.90
30336;DHT22;17142;47.990;7.846;2022-08-19T15:31:32;23.80;99.90
30336;DHT22;17142;47.990;7.846;2022-08-19T15:34:01;23.80;99.90
30336;DHT22;17142;47.990;7.846;2022-08-19T15:36:27;23.80;99.90
30336;DHT22;17142;47.990;7.846;2022-08-19T15:38:55;23.80;99.90
30336;DHT22;17142;47.990;7.846;2022-08-19T15:41:26;23.80;99.90
30336;DHT22;17142;47.990;7.846;2022-08-19T15:43:57;23.90;99.90
30336;DHT22;17142;47.990;7.846;2022-08-19T15:46:27;24.00;99.90
30336;DHT22;17142;47.990;7.846;2022-08-19T15:48:56;24.10;99.90
30336;DHT22;17142;47.990;7.846;2022-08-19T15:51:22;24.30;99.90
30336;DHT22;17142;47.990;7.846;2022-08-19T15:53:51;24.40;99.90
30336;DHT22;17142;47.990;7.846;2022-08-19T15:56:20;24.60;99.90
30336;DHT22;17142;47.990;7.846;2022-08-19T15:58:45;24.70;99.90
30336;DHT22;17142;47.990;7.846;2022-08-19T16:01:30;24.80;99.90
30336;DHT22;17142;47.990;7.846;2022-08-19T16:04:15;24.90;99.90
30336;DHT22;17142;47.990;7.846;2022-08-19T16:07:00;25.10;99.90
30336;DHT22;17142;47.990;7.846;2022-08-19T16:09:30;25.10;99.90
30336;DHT22;17142;47.990;7.846;2022-08-19T16:12:01;25.20;99.90
30336;DHT22;17142;47.990;7.846;2022-08-19T16:14:32;25.20;99.90
30336;DHT22;17142;47.990;7.846;2022-08-19T16:17:02;25.20;99.90
30336;DHT22;17142;47.990;7.846;2022-08-19T16:19:32;25.20;99.90
30336;DHT22;17142;47.990;7.846;2022-08-19T16:21:58;25.20;99.90
30336;DHT22;17142;47.990;7.846;2022-08-19T16:24:26;25.20;99.90
30336;DHT22;17142;47.990;7.846;2022-08-19T16:26:52;25.20;99.90
30336;DHT22;17142;47.990;7.846;2022-08-19T16:29:19;25.10;99.90
30336;DHT22;17142;47.990;7.846;2022-08-19T16:31:47;25.00;99.90
30336;DHT22;17142;47.990;7.846;2022-08-19T16:34:14;24.90;99.90
30336;DHT22;17142;47.990;7.846;2022-08-19T16:36:43;24.90;99.70
30336;DHT22;17142;47.990;7.846;2022-08-19T16:39:10;25.00;99.70
30336;DHT22;17142;47.990;7.846;2022-08-19T16:41:37;25.10;99.30
30336;DHT22;17142;47.990;7.846;2022-08-19T16:44:04;25.20;99.00
30336;DHT22;17142;47.990;7.846;2022-08-19T16:46:30;25.30;98.20
30336;DHT22;17142;47.990;7.846;2022-08-19T16:48:56;25.50;97.40
30336;DHT22;17142;47.990;7.846;2022-08-19T16:51:22;25.50;97.10
30336;DHT22;17142;47.990;7.846;2022-08-19T16:53:47;25.60;96.60
30336;DHT22;17142;47.990;7.846;2022-08-19T16:56:13;25.60;96.40
30336;DHT22;17142;47.990;7.846;2022-08-19T16:58:40;25.60;96.20
30336;DHT22;17142;47.990;7.846;2022-08-19T17:01:07;25.50;95.50
30336;DHT22;17142;47.990;7.846;2022-08-19T17:03:34;25.40;95.60
30336;DHT22;17142;47.990;7.846;2022-08-19T17:06:12;25.40;95.80
30336;DHT22;17142;47.990;7.846;2022-08-19T17:08:39;25.30;96.00
30336;DHT22;17142;47.990;7.846;2022-08-19T17:11:05;25.30;96.10
30336;DHT22;17142;47.990;7.846;2022-08-19T17:13:31;25.30;96.30
30336;DHT22;17142;47.990;7.846;2022-08-19T17:15:57;25.30;96.10
30336;DHT22;17142;47.990;7.846;2022-08-19T17:18:24;25.10;95.90
30336;DHT22;17142;47.990;7.846;2022-08-19T17:20:51;25.00;96.10
30336;DHT22;17142;47.990;7.846;2022-08-19T17:23:19;24.80;96.40
30336;DHT22;17142;47.990;7.846;2022-08-19T17:25:49;24.60;96.60
30336;DHT22;17142;47.990;7.846;2022-08-19T17:28:18;24.50;97.00
30336;DHT22;17142;47.990;7.846;2022-08-19T17:30:44;24.40;97.30
30336;DHT22;17142;47.990;7.846;2022-08-19T17:33:10;24.20;97.60
30336;DHT22;17142;47.990;7.846;2022-08-19T17:35:43;24.20;97.90
30336;DHT22;17142;47.990;7.846;2022-08-19T17:38:11;24.10;98.10
30336;DHT22;17142;47.990;7.846;2022-08-19T17:40:38;24.00;98.40
30336;DHT22;17142;47.990;7.846;2022-08-19T17:43:11;24.00;98.80
30336;DHT22;17142;47.990;7.846;2022-08-19T17:45:41;23.90;99.20
30336;DHT22;17142;47.990;7.846;2022-08-19T17:48:10;23.80;99.50
30336;DHT22;17142;47.990;7.846;2022-08-19T17:50:36;23.70;99.90
30336;DHT22;17142;47.990;7.846;2022-08-19T17:53:02;23.70;99.90
30336;DHT22;17142;47.990;7.846;2022-08-19T17:55:28;23.60;99.90
30336;DHT22;17142;47.990;7.846;2022-08-19T17:57:54;23.60;99.90
30336;DHT22;17142;47.990;7.846;2022-08-19T18:00:21;23.60;99.90
30336;DHT22;17142;47.990;7.846;2022-08-19T18:02:56;23.70;99.90
30336;DHT22;17142;47.990;7.846;2022-08-19T18:05:26;23.90;99.90
30336;DHT22;17142;47.990;7.846;2022-08-19T18:07:55;24.00;99.90
30336;DHT22;17142;47.990;7.846;2022-08-19T18:10:24;24.20;99.90
30336;DHT22;17142;47.990;7.846;2022-08-19T18:12:51;24.20;99.90
30336;DHT22;17142;47.990;7.846;2022-08-19T18:15:18;24.20;99.90
30336;DHT22;17142;47.990;7.846;2022-08-19T18:17:45;24.30;99.90
30336;DHT22;17142;47.990;7.846;2022-08-19T18:20:12;24.20;99.90
30336;DHT22;17142;47.990;7.846;2022-08-19T18:22:44;23.90;99.90
30336;DHT22;17142;47.990;7.846;2022-08-19T18:25:31;23.60;99.90
30336;DHT22;17142;47.990;7.846;2022-08-19T18:27:58;23.20;99.90
30336;DHT22;17142;47.990;7.846;2022-08-19T18:30:29;22.80;99.90
30336;DHT22;17142;47.990;7.846;2022-08-19T18:33:00;22.50;99.90
30336;DHT22;17142;47.990;7.846;2022-08-19T18:35:28;22.20;99.90
30336;DHT22;17142;47.990;7.846;2022-08-19T18:37:56;21.90;99.90
30336;DHT22;17142;47.990;7.846;2022-08-19T18:40:23;21.70;99.90
30336;DHT22;17142;47.990;7.846;2022-08-19T18:43:22;21.50;99.90
30336;DHT22;17142;47.990;7.846;2022-08-19T18:45:48;21.30;99.90
30336;DHT22;17142;47.990;7.846;2022-08-19T18:48:33;21.20;99.90
30336;DHT22;17142;47.990;7.846;2022-08-19T18:51:17;21.10;99.90
30336;DHT22;17142;47.990;7.846;2022-08-19T18:53:45;21.00;99.90
30336;DHT22;17142;47.990;7.846;2022-08-19T18:56:13;20.90;99.90
30336;DHT22;17142;47.990;7.846;2022-08-19T18:58:40;20.80;99.90
30336;DHT22;17142;47.990;7.846;2022-08-19T19:01:21;20.70;99.90
30336;DHT22;17142;47.990;7.846;2022-08-19T19:03:53;20.60;99.90
30336;DHT22;17142;47.990;7.846;2022-08-19T19:06:22;20.50;99.90
30336;DHT22;17142;47.990;7.846;2022-08-19T19:08:51;20.40;99.90
30336;DHT22;17142;47.990;7.846;2022-08-19T19:11:31;20.40;99.90
30336;DHT22;17142;47.990;7.846;2022-08-19T19:14:01;20.30;99.90
30336;DHT22;17142;47.990;7.846;2022-08-19T19:16:31;20.20;99.90
30336;DHT22;17142;47.990;7.846;2022-08-19T19:18:59;20.10;99.90
30336;DHT22;17142;47.990;7.846;2022-08-19T19:21:25;20.10;99.90
30336;DHT22;17142;47.990;7.846;2022-08-19T19:23:54;20.00;99.90
30336;DHT22;17142;47.990;7.846;2022-08-19T19:26:20;19.90;99.90
30336;DHT22;17142;47.990;7.846;2022-08-19T19:28:47;19.80;99.90
30336;DHT22;17142;47.990;7.846;2022-08-19T19:31:20;19.80;99.90
30336;DHT22;17142;47.990;7.846;2022-08-19T19:33:55;19.70;99.90
30336;DHT22;17142;47.990;7.846;2022-08-19T19:36:22;19.60;99.90
30336;DHT22;17142;47.990;7.846;2022-08-19T19:38:51;19.50;99.90
30336;DHT22;17142;47.990;7.846;2022-08-19T19:41:20;19.50;99.90
30336;DHT22;17142;47.990;7.846;2022-08-19T19:43:52;19.40;99.90
30336;DHT22;17142;47.990;7.846;2022-08-19T19:46:18;19.40;99.90
30336;DHT22;17142;47.990;7.846;2022-08-19T19:48:44;19.30;99.90
30336;DHT22;17142;47.990;7.846;2022-08-19T19:51:13;19.30;99.90
30336;DHT22;17142;47.990;7.846;2022-08-19T19:53:39;19.30;99.90
30336;DHT22;17142;47.990;7.846;2022-08-19T19:56:05;19.20;99.90
30336;DHT22;17142;47.990;7.846;2022-08-19T19:58:33;19.10;99.90
30336;DHT22;17142;47.990;7.846;2022-08-19T20:01:04;19.00;99.90
30336;DHT22;17142;47.990;7.846;2022-08-19T20:03:31;19.00;99.90
30336;DHT22;17142;47.990;7.846;2022-08-19T20:05:57;19.00;99.90
30336;DHT22;17142;47.990;7.846;2022-08-19T20:08:27;18.90;99.90
30336;DHT22;17142;47.990;7.846;2022-08-19T20:11:12;18.90;99.90
30336;DHT22;17142;47.990;7.846;2022-08-19T20:13:41;18.80;99.90
30336;DHT22;17142;47.990;7.846;2022-08-19T20:16:07;18.80;99.90
30336;DHT22;17142;47.990;7.846;2022-08-19T20:18:35;18.80;99.90
30336;DHT22;17142;47.990;7.846;2022-08-19T20:21:01;18.80;99.90
30336;DHT22;17142;47.990;7.846;2022-08-19T20:23:29;18.90;99.90
30336;DHT22;17142;47.990;7.846;2022-08-19T20:25:57;19.00;99.90
30336;DHT22;17142;47.990;7.846;2022-08-19T20:28:25;19.00;99.90
30336;DHT22;17142;47.990;7.846;2022-08-19T20:30:53;19.10;99.90
30336;DHT22;17142;47.990;7.846;2022-08-19T20:33:21;19.10;99.90
30336;DHT22;17142;47.990;7.846;2022-08-19T20:35:46;19.20;99.90
30336;DHT22;17142;47.990;7.846;2022-08-19T20:38:12;19.20;99.90
30336;DHT22;17142;47.990;7.846;2022-08-19T20:40:37;19.20;99.90
30336;DHT22;17142;47.990;7.846;2022-08-19T20:43:10;19.10;99.90
30336;DHT22;17142;47.990;7.846;2022-08-19T20:45:37;19.10;99.90
30336;DHT22;17142;47.990;7.846;2022-08-19T20:48:06;19.00;99.90
30336;DHT22;17142;47.990;7.846;2022-08-19T20:50:35;18.90;99.90
30336;DHT22;17142;47.990;7.846;2022-08-19T20:53:11;18.90;99.90
30336;DHT22;17142;47.990;7.846;2022-08-19T20:55:38;18.90;99.90
30336;DHT22;17142;47.990;7.846;2022-08-19T20:58:03;18.90;99.90
30336;DHT22;17142;47.990;7.846;2022-08-19T21:00:29;18.80;99.90
30336;DHT22;17142;47.990;7.846;2022-08-19T21:03:01;18.80;99.90
30336;DHT22;17142;47.990;7.846;2022-08-19T21:05:29;18.70;99.90
30336;DHT22;17142;47.990;7.846;2022-08-19T21:07:54;18.70;99.90
30336;DHT22;17142;47.990;7.846;2022-08-19T21:10:20;18.70;99.90
30336;DHT22;17142;47.990;7.846;2022-08-19T21:12:46;18.70;99.90
30336;DHT22;17142;47.990;7.846;2022-08-19T21:15:12;18.70;99.90
30336;DHT22;17142;47.990;7.846;2022-08-19T21:17:37;18.70;99.90
30336;DHT22;17142;47.990;7.846;2022-08-19T21:20:05;18.70;99.90
30336;DHT22;17142;47.990;7.846;2022-08-19T21:22:33;18.70;99.90
30336;DHT22;17142;47.990;7.846;2022-08-19T21:24:58;18.80;99.90
30336;DHT22;17142;47.990;7.846;2022-08-19T21:27:26;18.70;99.90
30336;DHT22;17142;47.990;7.846;2022-08-19T21:29:54;18.70;99.90
30336;DHT22;17142;47.990;7.846;2022-08-19T21:32:20;18.70;99.90
30336;DHT22;17142;47.990;7.846;2022-08-19T21:34:46;18.60;99.90
30336;DHT22;17142;47.990;7.846;2022-08-19T21:37:15;18.60;99.90
30336;DHT22;17142;47.990;7.846;2022-08-19T21:39:44;18.60;99.90
30336;DHT22;17142;47.990;7.846;2022-08-19T21:42:11;18.50;99.90
30336;DHT22;17142;47.990;7.846;2022-08-19T21:44:37;18.50;99.90
30336;DHT22;17142;47.990;7.846;2022-08-19T21:47:02;18.40;99.90
30336;DHT22;17142;47.990;7.846;2022-08-19T21:49:32;18.50;99.90
30336;DHT22;17142;47.990;7.846;2022-08-19T21:51:58;18.40;99.90
30336;DHT22;17142;47.990;7.846;2022-08-19T21:54:24;18.40;99.90
30336;DHT22;17142;47.990;7.846;2022-08-19T21:56:52;18.40;99.90
30336;DHT22;17142;47.990;7.846;2022-08-19T21:59:17;18.30;99.90